CheckWX is a tool to help pilots better visualize weather data.  It is not intended as a substitute for an official pre-flight weather briefing.

09:49:01 UTC

KSFO METAR
San Francisco International Airport
San Francisco, California, USA
Current

19 mins ago

KSFO 220930Z 29020G25KT 9SM BKN021 BKN027 13/09 A2983 RMK AO2 PK WND 28028/0857 T01280094
Observed
May-22 @ 09:30 UTC
Wind
  • 290° at 20 KTS
  • Gusting to 25 KTS
Visibility
9 SM
Flight Rules
MVFR
Cloud Levels
  • Broken at 2,100' AGL
  • Broken at 2,700' AGL
Temperature
13°C / 55°F
Dewpoint
C / 48°F
Humidity
77%
Altimeter
29.83" Hg
Pressure
1010.12 hPa
Previous

53 mins ago

KSFO 220856Z 28018KT 8SM FEW016 SCT021 BKN065 12/09 A2983 RMK AO2 PK WND 28026/0847 SLP101 60000 T01220094 58018
Observed
May-22 @ 08:56 UTC
Wind
  • 280° at 18 KTS
Visibility
8 SM
Flight Rules
VFR
Cloud Levels
  • Few at 1,600' AGL
  • Scattered at 2,100' AGL
  • Broken at 6,500' AGL
Temperature
12°C / 54°F
Dewpoint
C / 48°F
Humidity
82%
Altimeter
29.83" Hg
Pressure
1010.12 hPa
Previous

2 hours ago

KSFO 220756Z 28014G24KT 8SM SCT020 SCT027 OVC095 12/09 A2985 RMK AO2 PK WND 28026/0703 SLP107 T01220094 401670111
Observed
May-22 @ 07:56 UTC
Wind
  • 280° at 14 KTS
  • Gusting to 24 KTS
Visibility
8 SM
Flight Rules
VFR
Cloud Levels
  • Scattered at 2,000' AGL
  • Scattered at 2,700' AGL
  • Overcast at 9,500' AGL
Temperature
12°C / 54°F
Dewpoint
C / 48°F
Humidity
82%
Altimeter
29.85" Hg
Pressure
1010.82 hPa